sensor_id;sensor_type;location;lat;lon;timestamp;P1;durP1;ratioP1;P2;durP2;ratioP2
15287;SDS011;7745;48.708;9.026;2024-03-08T00:00:21;37.13;;;24.53;;
15287;SDS011;7745;48.708;9.026;2024-03-08T00:02:47;33.47;;;23.37;;
15287;SDS011;7745;48.708;9.026;2024-03-08T00:05:15;34.10;;;22.43;;
15287;SDS011;7745;48.708;9.026;2024-03-08T00:07:43;33.60;;;23.03;;
15287;SDS011;7745;48.708;9.026;2024-03-08T00:10:10;33.30;;;22.90;;
15287;SDS011;7745;48.708;9.026;2024-03-08T00:12:38;36.43;;;23.13;;
15287;SDS011;7745;48.708;9.026;2024-03-08T00:15:07;34.27;;;23.43;;
15287;SDS011;7745;48.708;9.026;2024-03-08T00:17:36;31.50;;;22.63;;
15287;SDS011;7745;48.708;9.026;2024-03-08T00:20:03;35.30;;;23.03;;
15287;SDS011;7745;48.708;9.026;2024-03-08T00:22:33;35.00;;;22.83;;
15287;SDS011;7745;48.708;9.026;2024-03-08T00:25:00;32.47;;;22.23;;
15287;SDS011;7745;48.708;9.026;2024-03-08T00:27:28;33.03;;;22.37;;
15287;SDS011;7745;48.708;9.026;2024-03-08T00:29:56;34.57;;;23.83;;
15287;SDS011;7745;48.708;9.026;2024-03-08T00:32:23;35.47;;;24.07;;
15287;SDS011;7745;48.708;9.026;2024-03-08T00:34:51;31.70;;;22.77;;
15287;SDS011;7745;48.708;9.026;2024-03-08T00:37:18;36.37;;;22.80;;
15287;SDS011;7745;48.708;9.026;2024-03-08T00:39:45;34.50;;;22.80;;
15287;SDS011;7745;48.708;9.026;2024-03-08T00:42:11;34.53;;;23.73;;
15287;SDS011;7745;48.708;9.026;2024-03-08T00:44:38;34.43;;;22.27;;
15287;SDS011;7745;48.708;9.026;2024-03-08T00:47:05;30.67;;;21.50;;
15287;SDS011;7745;48.708;9.026;2024-03-08T00:49:32;32.80;;;22.70;;
15287;SDS011;7745;48.708;9.026;2024-03-08T00:52:00;33.50;;;22.97;;
15287;SDS011;7745;48.708;9.026;2024-03-08T00:54:27;32.77;;;21.77;;
15287;SDS011;7745;48.708;9.026;2024-03-08T00:56:55;32.53;;;21.90;;
15287;SDS011;7745;48.708;9.026;2024-03-08T00:59:22;33.63;;;22.80;;
15287;SDS011;7745;48.708;9.026;2024-03-08T01:01:49;32.43;;;22.77;;
15287;SDS011;7745;48.708;9.026;2024-03-08T01:04:15;31.80;;;20.83;;
15287;SDS011;7745;48.708;9.026;2024-03-08T01:06:43;33.53;;;22.07;;
15287;SDS011;7745;48.708;9.026;2024-03-08T01:09:12;34.27;;;22.47;;
15287;SDS011;7745;48.708;9.026;2024-03-08T01:11:39;34.83;;;23.37;;
15287;SDS011;7745;48.708;9.026;2024-03-08T01:14:07;32.50;;;22.27;;
15287;SDS011;7745;48.708;9.026;2024-03-08T01:16:34;32.23;;;21.93;;
15287;SDS011;7745;48.708;9.026;2024-03-08T01:19:01;33.87;;;21.73;;
15287;SDS011;7745;48.708;9.026;2024-03-08T01:21:28;32.93;;;22.40;;
15287;SDS011;7745;48.708;9.026;2024-03-08T01:23:55;34.20;;;22.37;;
15287;SDS011;7745;48.708;9.026;2024-03-08T01:26:23;32.03;;;20.90;;
15287;SDS011;7745;48.708;9.026;2024-03-08T01:28:50;32.10;;;21.70;;
15287;SDS011;7745;48.708;9.026;2024-03-08T01:31:17;34.20;;;22.27;;
15287;SDS011;7745;48.708;9.026;2024-03-08T01:33:44;35.43;;;22.80;;
15287;SDS011;7745;48.708;9.026;2024-03-08T01:36:10;33.37;;;22.33;;
15287;SDS011;7745;48.708;9.026;2024-03-08T01:38:40;31.80;;;21.27;;
15287;SDS011;7745;48.708;9.026;2024-03-08T01:41:07;32.23;;;21.13;;
15287;SDS011;7745;48.708;9.026;2024-03-08T01:43:35;33.90;;;21.60;;
15287;SDS011;7745;48.708;9.026;2024-03-08T01:46:02;38.47;;;22.90;;
15287;SDS011;7745;48.708;9.026;2024-03-08T01:48:29;34.13;;;22.03;;
15287;SDS011;7745;48.708;9.026;2024-03-08T01:50:57;31.37;;;21.80;;
15287;SDS011;7745;48.708;9.026;2024-03-08T01:53:25;34.17;;;22.57;;
15287;SDS011;7745;48.708;9.026;2024-03-08T01:55:54;35.90;;;22.63;;
15287;SDS011;7745;48.708;9.026;2024-03-08T01:58:23;32.73;;;22.40;;
15287;SDS011;7745;48.708;9.026;2024-03-08T02:00:54;30.90;;;22.40;;
15287;SDS011;7745;48.708;9.026;2024-03-08T02:03:23;29.90;;;21.13;;
15287;SDS011;7745;48.708;9.026;2024-03-08T02:05:50;34.03;;;22.87;;
15287;SDS011;7745;48.708;9.026;2024-03-08T02:08:17;34.97;;;23.50;;
15287;SDS011;7745;48.708;9.026;2024-03-08T02:10:47;34.30;;;22.40;;
15287;SDS011;7745;48.708;9.026;2024-03-08T02:13:14;34.93;;;23.07;;
15287;SDS011;7745;48.708;9.026;2024-03-08T02:15:51;33.73;;;21.83;;
15287;SDS011;7745;48.708;9.026;2024-03-08T02:18:19;39.17;;;23.50;;
15287;SDS011;7745;48.708;9.026;2024-03-08T02:20:48;34.33;;;23.10;;
15287;SDS011;7745;48.708;9.026;2024-03-08T02:23:15;34.50;;;23.07;;
15287;SDS011;7745;48.708;9.026;2024-03-08T02:25:42;32.87;;;21.67;;
15287;SDS011;7745;48.708;9.026;2024-03-08T02:28:09;32.13;;;21.97;;
15287;SDS011;7745;48.708;9.026;2024-03-08T02:30:37;37.37;;;22.17;;
15287;SDS011;7745;48.708;9.026;2024-03-08T02:33:04;32.27;;;21.73;;
15287;SDS011;7745;48.708;9.026;2024-03-08T02:35:31;32.23;;;21.47;;
15287;SDS011;7745;48.708;9.026;2024-03-08T02:37:59;33.70;;;20.77;;
15287;SDS011;7745;48.708;9.026;2024-03-08T02:40:26;32.80;;;21.87;;
15287;SDS011;7745;48.708;9.026;2024-03-08T02:42:53;32.67;;;21.33;;
15287;SDS011;7745;48.708;9.026;2024-03-08T02:45:19;31.37;;;20.30;;
15287;SDS011;7745;48.708;9.026;2024-03-08T02:47:46;31.83;;;20.90;;
15287;SDS011;7745;48.708;9.026;2024-03-08T02:50:14;32.47;;;21.10;;
15287;SDS011;7745;48.708;9.026;2024-03-08T02:52:41;30.30;;;20.43;;
15287;SDS011;7745;48.708;9.026;2024-03-08T02:55:10;33.30;;;21.03;;
15287;SDS011;7745;48.708;9.026;2024-03-08T02:57:40;31.47;;;20.73;;
15287;SDS011;7745;48.708;9.026;2024-03-08T03:00:07;32.00;;;19.83;;
15287;SDS011;7745;48.708;9.026;2024-03-08T03:02:35;29.43;;;20.43;;
15287;SDS011;7745;48.708;9.026;2024-03-08T03:05:02;33.17;;;21.37;;
15287;SDS011;7745;48.708;9.026;2024-03-08T03:07:31;28.93;;;19.57;;
15287;SDS011;7745;48.708;9.026;2024-03-08T03:09:58;33.83;;;20.17;;
15287;SDS011;7745;48.708;9.026;2024-03-08T03:12:26;29.33;;;19.63;;
15287;SDS011;7745;48.708;9.026;2024-03-08T03:14:53;33.07;;;20.63;;
15287;SDS011;7745;48.708;9.026;2024-03-08T03:17:21;31.33;;;19.47;;
15287;SDS011;7745;48.708;9.026;2024-03-08T03:19:48;30.67;;;19.83;;
15287;SDS011;7745;48.708;9.026;2024-03-08T03:22:15;28.60;;;20.43;;
15287;SDS011;7745;48.708;9.026;2024-03-08T03:24:42;32.23;;;20.37;;
15287;SDS011;7745;48.708;9.026;2024-03-08T03:27:08;29.57;;;20.20;;
15287;SDS011;7745;48.708;9.026;2024-03-08T03:29:38;29.87;;;20.03;;
15287;SDS011;7745;48.708;9.026;2024-03-08T03:32:05;32.83;;;21.17;;
15287;SDS011;7745;48.708;9.026;2024-03-08T03:34:32;30.27;;;20.07;;
15287;SDS011;7745;48.708;9.026;2024-03-08T03:37:01;29.30;;;19.73;;
15287;SDS011;7745;48.708;9.026;2024-03-08T03:39:28;28.70;;;19.30;;
15287;SDS011;7745;48.708;9.026;2024-03-08T03:41:56;30.00;;;19.00;;
15287;SDS011;7745;48.708;9.026;2024-03-08T03:44:23;32.20;;;20.17;;
15287;SDS011;7745;48.708;9.026;2024-03-08T03:46:51;29.03;;;20.07;;
15287;SDS011;7745;48.708;9.026;2024-03-08T03:49:18;28.97;;;19.90;;
15287;SDS011;7745;48.708;9.026;2024-03-08T03:51:45;31.47;;;20.10;;
15287;SDS011;7745;48.708;9.026;2024-03-08T03:54:12;30.27;;;20.17;;
15287;SDS011;7745;48.708;9.026;2024-03-08T03:56:39;29.50;;;20.10;;
15287;SDS011;7745;48.708;9.026;2024-03-08T03:59:06;29.17;;;19.63;;
15287;SDS011;7745;48.708;9.026;2024-03-08T04:01:33;32.00;;;20.20;;
15287;SDS011;7745;48.708;9.026;2024-03-08T04:04:01;30.77;;;20.83;;
15287;SDS011;7745;48.708;9.026;2024-03-08T04:06:28;30.37;;;19.30;;
15287;SDS011;7745;48.708;9.026;2024-03-08T04:08:55;30.33;;;21.13;;
15287;SDS011;7745;48.708;9.026;2024-03-08T04:11:22;30.07;;;20.20;;
15287;SDS011;7745;48.708;9.026;2024-03-08T04:13:48;32.07;;;20.63;;
15287;SDS011;7745;48.708;9.026;2024-03-08T04:16:15;30.17;;;20.33;;
15287;SDS011;7745;48.708;9.026;2024-03-08T04:18:44;30.00;;;20.70;;
15287;SDS011;7745;48.708;9.026;2024-03-08T04:21:12;29.83;;;20.10;;
15287;SDS011;7745;48.708;9.026;2024-03-08T04:23:38;34.10;;;21.30;;
15287;SDS011;7745;48.708;9.026;2024-03-08T04:26:05;34.07;;;20.80;;
15287;SDS011;7745;48.708;9.026;2024-03-08T04:28:34;29.23;;;20.40;;
15287;SDS011;7745;48.708;9.026;2024-03-08T04:31:02;31.20;;;20.63;;
15287;SDS011;7745;48.708;9.026;2024-03-08T04:33:29;30.17;;;20.90;;
15287;SDS011;7745;48.708;9.026;2024-03-08T04:35:56;31.80;;;21.60;;
15287;SDS011;7745;48.708;9.026;2024-03-08T04:38:24;34.17;;;21.33;;
15287;SDS011;7745;48.708;9.026;2024-03-08T04:40:51;30.73;;;20.87;;
15287;SDS011;7745;48.708;9.026;2024-03-08T04:43:18;35.13;;;22.50;;
15287;SDS011;7745;48.708;9.026;2024-03-08T04:45:45;31.70;;;20.93;;
15287;SDS011;7745;48.708;9.026;2024-03-08T04:48:13;31.53;;;21.17;;
15287;SDS011;7745;48.708;9.026;2024-03-08T04:50:40;34.07;;;21.77;;
15287;SDS011;7745;48.708;9.026;2024-03-08T04:53:07;32.67;;;21.77;;
15287;SDS011;7745;48.708;9.026;2024-03-08T04:55:35;32.67;;;22.03;;
15287;SDS011;7745;48.708;9.026;2024-03-08T04:58:02;35.83;;;22.60;;
15287;SDS011;7745;48.708;9.026;2024-03-08T05:00:30;30.63;;;21.63;;
15287;SDS011;7745;48.708;9.026;2024-03-08T05:02:57;34.13;;;22.63;;
15287;SDS011;7745;48.708;9.026;2024-03-08T05:05:24;31.80;;;21.40;;
15287;SDS011;7745;48.708;9.026;2024-03-08T05:07:53;34.70;;;22.17;;
15287;SDS011;7745;48.708;9.026;2024-03-08T05:10:20;34.33;;;22.63;;
15287;SDS011;7745;48.708;9.026;2024-03-08T05:12:48;34.83;;;22.40;;
15287;SDS011;7745;48.708;9.026;2024-03-08T05:15:15;35.67;;;21.93;;
15287;SDS011;7745;48.708;9.026;2024-03-08T05:17:42;33.57;;;22.63;;
15287;SDS011;7745;48.708;9.026;2024-03-08T05:20:10;33.73;;;22.90;;
15287;SDS011;7745;48.708;9.026;2024-03-08T05:22:38;37.33;;;23.73;;
15287;SDS011;7745;48.708;9.026;2024-03-08T05:25:05;38.33;;;23.90;;
15287;SDS011;7745;48.708;9.026;2024-03-08T05:27:33;31.47;;;22.57;;
15287;SDS011;7745;48.708;9.026;2024-03-08T05:30:02;32.97;;;22.47;;
15287;SDS011;7745;48.708;9.026;2024-03-08T05:32:30;35.57;;;23.13;;
15287;SDS011;7745;48.708;9.026;2024-03-08T05:34:56;35.27;;;23.83;;
15287;SDS011;7745;48.708;9.026;2024-03-08T05:37:23;38.20;;;24.10;;
15287;SDS011;7745;48.708;9.026;2024-03-08T05:39:50;33.63;;;22.10;;
15287;SDS011;7745;48.708;9.026;2024-03-08T05:42:17;34.77;;;22.93;;
15287;SDS011;7745;48.708;9.026;2024-03-08T05:44:43;36.27;;;23.13;;
15287;SDS011;7745;48.708;9.026;2024-03-08T05:47:12;35.30;;;22.37;;
15287;SDS011;7745;48.708;9.026;2024-03-08T05:49:39;33.83;;;23.50;;
15287;SDS011;7745;48.708;9.026;2024-03-08T05:52:05;35.33;;;22.83;;
15287;SDS011;7745;48.708;9.026;2024-03-08T05:54:32;36.83;;;23.17;;
15287;SDS011;7745;48.708;9.026;2024-03-08T05:56:59;35.23;;;22.87;;
15287;SDS011;7745;48.708;9.026;2024-03-08T05:59:26;37.33;;;22.10;;
15287;SDS011;7745;48.708;9.026;2024-03-08T06:01:53;35.13;;;21.30;;
15287;SDS011;7745;48.708;9.026;2024-03-08T06:04:21;38.63;;;23.87;;
15287;SDS011;7745;48.708;9.026;2024-03-08T06:06:47;37.43;;;23.80;;
15287;SDS011;7745;48.708;9.026;2024-03-08T06:09:16;37.83;;;24.37;;
15287;SDS011;7745;48.708;9.026;2024-03-08T06:11:48;38.20;;;22.13;;
15287;SDS011;7745;48.708;9.026;2024-03-08T06:14:14;36.53;;;23.23;;
15287;SDS011;7745;48.708;9.026;2024-03-08T06:16:43;37.53;;;23.47;;
15287;SDS011;7745;48.708;9.026;2024-03-08T06:19:10;39.77;;;24.63;;
15287;SDS011;7745;48.708;9.026;2024-03-08T06:21:38;36.37;;;23.03;;
15287;SDS011;7745;48.708;9.026;2024-03-08T06:24:06;36.87;;;24.13;;
15287;SDS011;7745;48.708;9.026;2024-03-08T06:26:33;34.47;;;23.97;;
15287;SDS011;7745;48.708;9.026;2024-03-08T06:29:01;34.27;;;23.53;;
15287;SDS011;7745;48.708;9.026;2024-03-08T06:31:27;36.10;;;23.70;;
15287;SDS011;7745;48.708;9.026;2024-03-08T06:33:54;38.53;;;24.20;;
15287;SDS011;7745;48.708;9.026;2024-03-08T06:36:21;39.43;;;23.87;;
15287;SDS011;7745;48.708;9.026;2024-03-08T06:38:49;35.40;;;23.67;;
15287;SDS011;7745;48.708;9.026;2024-03-08T06:41:16;38.97;;;24.63;;
15287;SDS011;7745;48.708;9.026;2024-03-08T06:43:43;38.73;;;23.90;;
15287;SDS011;7745;48.708;9.026;2024-03-08T06:46:10;38.20;;;23.37;;
15287;SDS011;7745;48.708;9.026;2024-03-08T06:48:38;38.97;;;24.53;;
15287;SDS011;7745;48.708;9.026;2024-03-08T06:51:05;37.93;;;23.43;;
15287;SDS011;7745;48.708;9.026;2024-03-08T06:53:32;36.47;;;24.00;;
15287;SDS011;7745;48.708;9.026;2024-03-08T06:56:01;34.93;;;22.73;;
15287;SDS011;7745;48.708;9.026;2024-03-08T06:58:28;35.73;;;22.77;;
15287;SDS011;7745;48.708;9.026;2024-03-08T07:00:55;32.90;;;22.23;;
15287;SDS011;7745;48.708;9.026;2024-03-08T07:03:25;37.53;;;23.60;;
15287;SDS011;7745;48.708;9.026;2024-03-08T07:05:56;34.90;;;23.03;;
15287;SDS011;7745;48.708;9.026;2024-03-08T07:08:23;38.47;;;24.40;;
15287;SDS011;7745;48.708;9.026;2024-03-08T07:10:51;36.37;;;21.63;;
15287;SDS011;7745;48.708;9.026;2024-03-08T07:13:20;33.33;;;22.03;;
15287;SDS011;7745;48.708;9.026;2024-03-08T07:15:47;35.67;;;22.90;;
15287;SDS011;7745;48.708;9.026;2024-03-08T07:18:14;33.57;;;21.87;;
15287;SDS011;7745;48.708;9.026;2024-03-08T07:20:41;32.90;;;21.93;;
15287;SDS011;7745;48.708;9.026;2024-03-08T07:23:08;35.13;;;22.57;;
15287;SDS011;7745;48.708;9.026;2024-03-08T07:25:59;30.93;;;22.70;;
15287;SDS011;7745;48.708;9.026;2024-03-08T07:28:29;31.37;;;21.90;;
15287;SDS011;7745;48.708;9.026;2024-03-08T07:30:57;31.57;;;22.23;;
15287;SDS011;7745;48.708;9.026;2024-03-08T07:33:38;35.40;;;22.53;;
15287;SDS011;7745;48.708;9.026;2024-03-08T07:36:05;33.10;;;21.83;;
15287;SDS011;7745;48.708;9.026;2024-03-08T07:38:32;34.63;;;21.90;;
15287;SDS011;7745;48.708;9.026;2024-03-08T07:40:59;32.43;;;22.17;;
15287;SDS011;7745;48.708;9.026;2024-03-08T07:43:26;30.73;;;21.73;;
15287;SDS011;7745;48.708;9.026;2024-03-08T07:45:54;34.60;;;22.20;;
15287;SDS011;7745;48.708;9.026;2024-03-08T07:48:21;31.40;;;21.23;;
15287;SDS011;7745;48.708;9.026;2024-03-08T07:50:48;30.60;;;21.77;;
15287;SDS011;7745;48.708;9.026;2024-03-08T07:53:15;34.50;;;21.70;;
15287;SDS011;7745;48.708;9.026;2024-03-08T07:55:44;31.17;;;20.77;;
15287;SDS011;7745;48.708;9.026;2024-03-08T07:58:14;32.50;;;21.60;;
15287;SDS011;7745;48.708;9.026;2024-03-08T08:00:43;31.07;;;22.17;;
15287;SDS011;7745;48.708;9.026;2024-03-08T08:03:23;29.43;;;20.43;;
15287;SDS011;7745;48.708;9.026;2024-03-08T08:05:50;30.33;;;20.90;;
15287;SDS011;7745;48.708;9.026;2024-03-08T08:08:20;32.07;;;21.03;;
15287;SDS011;7745;48.708;9.026;2024-03-08T08:10:47;29.40;;;20.33;;
15287;SDS011;7745;48.708;9.026;2024-03-08T08:13:14;34.70;;;21.40;;
15287;SDS011;7745;48.708;9.026;2024-03-08T08:15:44;26.73;;;19.37;;
15287;SDS011;7745;48.708;9.026;2024-03-08T08:18:11;29.00;;;19.97;;
15287;SDS011;7745;48.708;9.026;2024-03-08T08:20:39;26.93;;;19.53;;
15287;SDS011;7745;48.708;9.026;2024-03-08T08:23:06;29.53;;;20.47;;
15287;SDS011;7745;48.708;9.026;2024-03-08T08:25:33;29.97;;;20.03;;
15287;SDS011;7745;48.708;9.026;2024-03-08T08:28:00;29.00;;;18.97;;
15287;SDS011;7745;48.708;9.026;2024-03-08T08:30:29;27.23;;;18.50;;
15287;SDS011;7745;48.708;9.026;2024-03-08T08:32:59;29.17;;;20.30;;
15287;SDS011;7745;48.708;9.026;2024-03-08T08:35:26;27.27;;;18.60;;
15287;SDS011;7745;48.708;9.026;2024-03-08T08:37:53;27.47;;;19.43;;
15287;SDS011;7745;48.708;9.026;2024-03-08T08:40:21;25.20;;;18.20;;
15287;SDS011;7745;48.708;9.026;2024-03-08T08:42:47;26.53;;;18.67;;
15287;SDS011;7745;48.708;9.026;2024-03-08T08:45:14;24.97;;;18.23;;
15287;SDS011;7745;48.708;9.026;2024-03-08T08:47:44;26.70;;;18.77;;
15287;SDS011;7745;48.708;9.026;2024-03-08T08:50:15;29.87;;;18.40;;
15287;SDS011;7745;48.708;9.026;2024-03-08T08:52:48;27.23;;;19.07;;
15287;SDS011;7745;48.708;9.026;2024-03-08T08:55:18;26.83;;;18.43;;
15287;SDS011;7745;48.708;9.026;2024-03-08T08:57:50;27.40;;;18.63;;
15287;SDS011;7745;48.708;9.026;2024-03-08T09:00:17;26.20;;;18.83;;
15287;SDS011;7745;48.708;9.026;2024-03-08T09:02:45;28.20;;;19.50;;
15287;SDS011;7745;48.708;9.026;2024-03-08T09:05:13;26.10;;;18.90;;
15287;SDS011;7745;48.708;9.026;2024-03-08T09:07:43;23.97;;;17.37;;
15287;SDS011;7745;48.708;9.026;2024-03-08T09:10:10;30.33;;;18.97;;
15287;SDS011;7745;48.708;9.026;2024-03-08T09:12:39;25.40;;;19.37;;
15287;SDS011;7745;48.708;9.026;2024-03-08T09:15:06;26.97;;;18.27;;
15287;SDS011;7745;48.708;9.026;2024-03-08T09:17:36;24.83;;;17.87;;
15287;SDS011;7745;48.708;9.026;2024-03-08T09:20:05;25.80;;;18.23;;
15287;SDS011;7745;48.708;9.026;2024-03-08T09:22:33;26.30;;;18.67;;
15287;SDS011;7745;48.708;9.026;2024-03-08T09:25:02;27.77;;;19.83;;
15287;SDS011;7745;48.708;9.026;2024-03-08T09:27:30;28.70;;;19.17;;
15287;SDS011;7745;48.708;9.026;2024-03-08T09:29:57;24.47;;;18.00;;
15287;SDS011;7745;48.708;9.026;2024-03-08T09:32:24;24.90;;;18.57;;
15287;SDS011;7745;48.708;9.026;2024-03-08T09:34:51;24.80;;;18.20;;
15287;SDS011;7745;48.708;9.026;2024-03-08T09:37:26;26.33;;;18.60;;
15287;SDS011;7745;48.708;9.026;2024-03-08T09:40:06;25.47;;;17.40;;
15287;SDS011;7745;48.708;9.026;2024-03-08T09:42:40;25.03;;;17.63;;
15287;SDS011;7745;48.708;9.026;2024-03-08T09:45:08;27.37;;;18.00;;
15287;SDS011;7745;48.708;9.026;2024-03-08T09:47:36;25.97;;;18.07;;
15287;SDS011;7745;48.708;9.026;2024-03-08T09:50:06;25.03;;;17.07;;
15287;SDS011;7745;48.708;9.026;2024-03-08T09:52:35;22.53;;;17.03;;
15287;SDS011;7745;48.708;9.026;2024-03-08T09:55:05;23.23;;;16.70;;
15287;SDS011;7745;48.708;9.026;2024-03-08T09:57:33;23.00;;;16.83;;
15287;SDS011;7745;48.708;9.026;2024-03-08T10:00:02;24.93;;;18.00;;
15287;SDS011;7745;48.708;9.026;2024-03-08T10:02:37;20.57;;;15.60;;
15287;SDS011;7745;48.708;9.026;2024-03-08T10:05:04;21.23;;;16.43;;
15287;SDS011;7745;48.708;9.026;2024-03-08T10:07:31;19.50;;;14.97;;
15287;SDS011;7745;48.708;9.026;2024-03-08T10:09:59;21.57;;;16.47;;
15287;SDS011;7745;48.708;9.026;2024-03-08T10:12:27;21.80;;;16.03;;
15287;SDS011;7745;48.708;9.026;2024-03-08T10:14:54;25.27;;;16.90;;
15287;SDS011;7745;48.708;9.026;2024-03-08T10:17:21;23.63;;;16.40;;
15287;SDS011;7745;48.708;9.026;2024-03-08T10:19:49;21.30;;;15.73;;
15287;SDS011;7745;48.708;9.026;2024-03-08T10:22:17;21.60;;;15.67;;
15287;SDS011;7745;48.708;9.026;2024-03-08T10:24:45;21.87;;;15.73;;
15287;SDS011;7745;48.708;9.026;2024-03-08T10:27:12;21.37;;;15.60;;
15287;SDS011;7745;48.708;9.026;2024-03-08T10:29:42;20.87;;;15.47;;
15287;SDS011;7745;48.708;9.026;2024-03-08T10:32:13;24.53;;;16.37;;
15287;SDS011;7745;48.708;9.026;2024-03-08T10:34:40;21.67;;;16.00;;
15287;SDS011;7745;48.708;9.026;2024-03-08T10:37:07;20.03;;;14.17;;
15287;SDS011;7745;48.708;9.026;2024-03-08T10:39:38;23.33;;;16.50;;
15287;SDS011;7745;48.708;9.026;2024-03-08T10:42:09;19.90;;;16.17;;
15287;SDS011;7745;48.708;9.026;2024-03-08T10:44:48;25.07;;;16.77;;
15287;SDS011;7745;48.708;9.026;2024-03-08T10:47:22;24.77;;;17.10;;
15287;SDS011;7745;48.708;9.026;2024-03-08T10:49:57;22.70;;;16.07;;
15287;SDS011;7745;48.708;9.026;2024-03-08T10:52:34;23.73;;;16.47;;
15287;SDS011;7745;48.708;9.026;2024-03-08T10:55:02;24.53;;;18.43;;
15287;SDS011;7745;48.708;9.026;2024-03-08T10:57:29;22.53;;;16.67;;
15287;SDS011;7745;48.708;9.026;2024-03-08T10:59:57;20.97;;;15.40;;
15287;SDS011;7745;48.708;9.026;2024-03-08T11:02:25;19.53;;;15.37;;
15287;SDS011;7745;48.708;9.026;2024-03-08T11:04:52;20.63;;;15.47;;
15287;SDS011;7745;48.708;9.026;2024-03-08T11:07:21;19.37;;;15.57;;
15287;SDS011;7745;48.708;9.026;2024-03-08T11:09:51;21.53;;;16.00;;
15287;SDS011;7745;48.708;9.026;2024-03-08T11:12:24;22.03;;;15.83;;
15287;SDS011;7745;48.708;9.026;2024-03-08T11:14:54;29.17;;;16.07;;
15287;SDS011;7745;48.708;9.026;2024-03-08T11:17:39;22.80;;;15.87;;
15287;SDS011;7745;48.708;9.026;2024-03-08T11:20:10;20.97;;;15.97;;
15287;SDS011;7745;48.708;9.026;2024-03-08T11:22:41;21.07;;;16.23;;
15287;SDS011;7745;48.708;9.026;2024-03-08T11:34:09;20.80;;;15.33;;
15287;SDS011;7745;48.708;9.026;2024-03-08T11:37:05;18.03;;;14.53;;
15287;SDS011;7745;48.708;9.026;2024-03-08T11:39:34;23.23;;;15.83;;
15287;SDS011;7745;48.708;9.026;2024-03-08T11:42:03;20.60;;;16.10;;
15287;SDS011;7745;48.708;9.026;2024-03-08T11:44:30;19.67;;;14.97;;
15287;SDS011;7745;48.708;9.026;2024-03-08T11:46:57;19.70;;;14.87;;
15287;SDS011;7745;48.708;9.026;2024-03-08T11:49:25;20.63;;;15.70;;
15287;SDS011;7745;48.708;9.026;2024-03-08T11:51:52;21.03;;;15.90;;
15287;SDS011;7745;48.708;9.026;2024-03-08T11:54:20;20.17;;;16.57;;
15287;SDS011;7745;48.708;9.026;2024-03-08T11:56:47;20.87;;;16.20;;
15287;SDS011;7745;48.708;9.026;2024-03-08T11:59:18;21.00;;;16.20;;
15287;SDS011;7745;48.708;9.026;2024-03-08T12:01:56;23.43;;;16.67;;
15287;SDS011;7745;48.708;9.026;2024-03-08T12:04:29;24.27;;;17.33;;
15287;SDS011;7745;48.708;9.026;2024-03-08T12:06:57;22.90;;;16.83;;
15287;SDS011;7745;48.708;9.026;2024-03-08T12:09:27;19.83;;;15.37;;
15287;SDS011;7745;48.708;9.026;2024-03-08T12:11:54;19.57;;;15.40;;
15287;SDS011;7745;48.708;9.026;2024-03-08T12:14:20;19.97;;;15.50;;
15287;SDS011;7745;48.708;9.026;2024-03-08T12:16:48;22.10;;;16.33;;
15287;SDS011;7745;48.708;9.026;2024-03-08T12:19:25;21.60;;;16.03;;
15287;SDS011;7745;48.708;9.026;2024-03-08T12:21:54;21.97;;;15.73;;
15287;SDS011;7745;48.708;9.026;2024-03-08T12:24:21;20.93;;;15.43;;
15287;SDS011;7745;48.708;9.026;2024-03-08T12:26:48;21.83;;;15.67;;
15287;SDS011;7745;48.708;9.026;2024-03-08T12:29:20;22.57;;;16.60;;
15287;SDS011;7745;48.708;9.026;2024-03-08T12:31:48;21.47;;;16.10;;
15287;SDS011;7745;48.708;9.026;2024-03-08T12:34:16;22.07;;;16.83;;
15287;SDS011;7745;48.708;9.026;2024-03-08T12:36:44;22.40;;;16.40;;
15287;SDS011;7745;48.708;9.026;2024-03-08T12:39:14;22.37;;;15.53;;
15287;SDS011;7745;48.708;9.026;2024-03-08T12:41:43;19.57;;;15.23;;
15287;SDS011;7745;48.708;9.026;2024-03-08T12:44:09;25.13;;;17.03;;
15287;SDS011;7745;48.708;9.026;2024-03-08T12:46:37;21.13;;;16.03;;
15287;SDS011;7745;48.708;9.026;2024-03-08T12:49:08;22.30;;;16.97;;
15287;SDS011;7745;48.708;9.026;2024-03-08T12:51:37;22.47;;;16.17;;
15287;SDS011;7745;48.708;9.026;2024-03-08T12:54:07;22.03;;;17.00;;
15287;SDS011;7745;48.708;9.026;2024-03-08T12:56:36;24.47;;;16.73;;
15287;SDS011;7745;48.708;9.026;2024-03-08T12:59:03;25.37;;;17.40;;
15287;SDS011;7745;48.708;9.026;2024-03-08T13:01:31;23.43;;;16.20;;
15287;SDS011;7745;48.708;9.026;2024-03-08T13:03:58;21.43;;;15.60;;
15287;SDS011;7745;48.708;9.026;2024-03-08T13:06:25;23.20;;;17.27;;
15287;SDS011;7745;48.708;9.026;2024-03-08T13:08:53;24.13;;;18.23;;
15287;SDS011;7745;48.708;9.026;2024-03-08T13:11:21;25.90;;;18.43;;
15287;SDS011;7745;48.708;9.026;2024-03-08T13:13:49;25.60;;;16.97;;
15287;SDS011;7745;48.708;9.026;2024-03-08T13:16:17;22.57;;;16.40;;
15287;SDS011;7745;48.708;9.026;2024-03-08T13:18:44;26.50;;;18.20;;
15287;SDS011;7745;48.708;9.026;2024-03-08T13:21:13;23.47;;;17.33;;
15287;SDS011;7745;48.708;9.026;2024-03-08T13:23:43;24.00;;;18.10;;
15287;SDS011;7745;48.708;9.026;2024-03-08T13:26:14;24.60;;;17.67;;
15287;SDS011;7745;48.708;9.026;2024-03-08T13:28:41;25.10;;;18.23;;
15287;SDS011;7745;48.708;9.026;2024-03-08T13:31:10;23.77;;;17.43;;
15287;SDS011;7745;48.708;9.026;2024-03-08T13:33:37;22.67;;;16.50;;
15287;SDS011;7745;48.708;9.026;2024-03-08T13:36:11;23.57;;;16.93;;
15287;SDS011;7745;48.708;9.026;2024-03-08T13:38:41;26.30;;;17.67;;
15287;SDS011;7745;48.708;9.026;2024-03-08T13:41:09;23.67;;;17.17;;
15287;SDS011;7745;48.708;9.026;2024-03-08T13:43:39;23.80;;;16.97;;
15287;SDS011;7745;48.708;9.026;2024-03-08T13:46:06;23.10;;;17.20;;
15287;SDS011;7745;48.708;9.026;2024-03-08T13:48:36;26.37;;;18.67;;
15287;SDS011;7745;48.708;9.026;2024-03-08T13:51:03;25.40;;;17.87;;
15287;SDS011;7745;48.708;9.026;2024-03-08T13:53:32;24.13;;;17.30;;
15287;SDS011;7745;48.708;9.026;2024-03-08T13:55:59;26.40;;;18.23;;
15287;SDS011;7745;48.708;9.026;2024-03-08T13:58:26;26.10;;;17.50;;
15287;SDS011;7745;48.708;9.026;2024-03-08T14:00:53;26.83;;;17.60;;
15287;SDS011;7745;48.708;9.026;2024-03-08T14:03:20;24.67;;;17.13;;
15287;SDS011;7745;48.708;9.026;2024-03-08T14:05:50;24.20;;;17.87;;
15287;SDS011;7745;48.708;9.026;2024-03-08T14:08:17;25.27;;;17.43;;
15287;SDS011;7745;48.708;9.026;2024-03-08T14:10:44;23.87;;;17.50;;
15287;SDS011;7745;48.708;9.026;2024-03-08T14:13:15;27.73;;;18.23;;
15287;SDS011;7745;48.708;9.026;2024-03-08T14:15:43;26.93;;;18.23;;
15287;SDS011;7745;48.708;9.026;2024-03-08T14:18:11;25.20;;;18.03;;
15287;SDS011;7745;48.708;9.026;2024-03-08T14:20:38;26.47;;;18.77;;
15287;SDS011;7745;48.708;9.026;2024-03-08T14:23:08;26.67;;;18.67;;
15287;SDS011;7745;48.708;9.026;2024-03-08T14:25:37;23.97;;;18.10;;
15287;SDS011;7745;48.708;9.026;2024-03-08T14:28:04;24.57;;;18.50;;
15287;SDS011;7745;48.708;9.026;2024-03-08T14:30:32;29.93;;;19.83;;
15287;SDS011;7745;48.708;9.026;2024-03-08T14:33:03;27.70;;;18.27;;
15287;SDS011;7745;48.708;9.026;2024-03-08T14:35:34;27.07;;;18.67;;
15287;SDS011;7745;48.708;9.026;2024-03-08T14:38:01;30.30;;;19.57;;
15287;SDS011;7745;48.708;9.026;2024-03-08T14:40:29;28.43;;;19.13;;
15287;SDS011;7745;48.708;9.026;2024-03-08T14:42:56;30.57;;;18.40;;
15287;SDS011;7745;48.708;9.026;2024-03-08T14:45:26;26.13;;;18.37;;
15287;SDS011;7745;48.708;9.026;2024-03-08T14:47:52;27.63;;;18.97;;